Time;durP1;ratioP1;P1;durP2;ratioP2;P2;SDS_P1;SDS_P2;PMS_P1;PMS_P2;Temp;Humidity;BMP_temperature;BMP_pressure;BME280_temperature;BME280_humidity;BME280_pressure;Samples;Min_cycle;Max_cycle;Signal;HPM_P1;HPM_P2
2022/02/24 00:01:12;;;;;;;20.80;11.00;;;;;;;2.99;82.29;99792.96;108029;1289;22449;-60
2022/02/24 00:03:40;;;;;;;17.70;10.50;;;;;;;2.98;82.28;99790.31;107853;1289;138974;-59
2022/02/24 00:06:10;;;;;;;21.70;10.50;;;;;;;2.97;82.23;99788.52;108023;1289;22265;-60
2022/02/24 00:08:38;;;;;;;17.70;9.60;;;;;;;2.96;82.13;99790.71;108012;1289;22538;-60
2022/02/24 00:11:06;;;;;;;21.60;9.70;;;;;;;2.96;82.22;99789.39;107827;1289;137469;-59
2022/02/24 00:13:35;;;;;;;17.30;8.70;;;;;;;2.95;82.20;99793.44;108046;1289;22424;-60
2022/02/24 00:16:04;;;;;;;17.30;9.00;;;;;;;2.94;82.22;99791.91;107861;1290;138855;-60
2022/02/24 00:18:33;;;;;;;16.70;8.90;;;;;;;2.95;82.36;99795.59;108023;1289;22535;-59
2022/02/24 00:21:01;;;;;;;17.30;9.00;;;;;;;2.95;82.23;99793.52;107971;1290;22471;-59
2022/02/24 00:23:29;;;;;;;13.50;9.00;;;;;;;2.94;82.27;99796.66;107819;1289;138293;-59
2022/02/24 00:25:57;;;;;;;13.00;8.70;;;;;;;2.94;82.42;99800.73;108005;1289;23768;-59
2022/02/24 00:28:27;;;;;;;17.40;9.30;;;;;;;2.94;82.34;99797.86;107628;1290;139706;-60
2022/02/24 00:30:56;;;;;;;17.30;10.00;;;;;;;2.94;82.27;99799.69;108254;1286;22506;-59
2022/02/24 00:33:24;;;;;;;21.30;10.00;;;;;;;2.94;82.43;99794.71;108166;1285;137800;-59
2022/02/24 00:35:52;;;;;;;18.00;10.10;;;;;;;2.93;82.44;99803.95;108365;1286;22559;-59
2022/02/24 00:38:20;;;;;;;16.90;10.30;;;;;;;2.91;82.31;99803.27;108319;1285;22263;-59
2022/02/24 00:40:49;;;;;;;19.10;10.60;;;;;;;2.90;82.37;99803.48;108158;1286;137170;-60
2022/02/24 00:43:16;;;;;;;18.10;9.70;;;;;;;2.89;82.39;99806.20;108317;1287;22481;-59
2022/02/24 00:45:44;;;;;;;17.70;9.10;;;;;;;2.89;82.40;99806.11;108251;1286;137752;-59
2022/02/24 00:48:12;;;;;;;18.30;10.00;;;;;;;2.89;82.42;99812.30;108404;1286;22471;-59
2022/02/24 00:50:40;;;;;;;17.70;9.60;;;;;;;2.88;82.46;99809.40;108327;1286;22565;-59
2022/02/24 00:53:09;;;;;;;19.70;9.90;;;;;;;2.88;82.60;99814.23;108246;1286;138235;-59
2022/02/24 00:55:37;;;;;;;17.00;9.80;;;;;;;2.89;82.69;99815.98;108327;1286;23153;-59
2022/02/24 00:58:05;;;;;;;18.90;9.70;;;;;;;2.90;82.78;99816.39;108212;1286;138450;-59
2022/02/24 01:00:33;;;;;;;19.00;10.50;;;;;;;2.88;82.80;99815.39;108331;1286;22422;-59
2022/02/24 01:03:01;;;;;;;19.20;10.00;;;;;;;2.90;82.82;99822.45;108304;1286;22630;-58
2022/02/24 01:05:30;;;;;;;18.80;9.60;;;;;;;2.91;82.92;99824.80;108198;1285;139081;-59
2022/02/24 01:07:58;;;;;;;18.90;10.80;;;;;;;2.92;82.90;99826.16;108333;1286;22533;-59
2022/02/24 01:10:26;;;;;;;19.60;10.70;;;;;;;2.91;82.82;99831.01;108627;1280;138984;-59
2022/02/24 01:12:54;;;;;;;20.40;11.70;;;;;;;2.90;82.86;99833.98;108747;1282;22422;-59
2022/02/24 01:15:22;;;;;;;16.90;10.30;;;;;;;2.89;82.89;99832.88;108663;1281;137302;-60
2022/02/24 01:17:50;;;;;;;21.00;10.90;;;;;;;2.87;82.94;99828.04;108617;1282;22499;-60
2022/02/24 01:20:21;;;;;;;17.70;9.80;;;;;;;2.85;83.00;99828.35;108600;1282;22476;-60
2022/02/24 01:22:49;;;;;;;17.20;10.80;;;;;;;2.83;82.89;99832.98;108553;1282;137958;-60
2022/02/24 01:25:21;;;;;;;17.00;11.20;;;;;;;2.81;82.92;99834.54;108734;1281;22447;-60
2022/02/24 01:27:49;;;;;;;17.60;9.80;;;;;;;2.79;82.92;99835.23;108556;1283;138219;-61
2022/02/24 01:30:17;;;;;;;19.70;9.90;;;;;;;2.80;83.08;99833.08;108784;1283;23522;-59
2022/02/24 01:32:45;;;;;;;24.60;10.60;;;;;;;2.79;83.03;99833.04;108774;1280;22444;-60
2022/02/24 01:35:13;;;;;;;16.60;10.50;;;;;;;2.78;83.26;99834.43;108647;1280;139157;-60
2022/02/24 01:37:41;;;;;;;18.60;10.90;;;;;;;2.77;83.31;99833.98;108761;1281;22410;-60
2022/02/24 01:40:09;;;;;;;20.30;10.30;;;;;;;2.77;83.36;99836.13;108662;1280;137649;-60
2022/02/24 01:42:37;;;;;;;16.60;10.50;;;;;;;2.75;83.37;99834.95;108540;1283;23468;-60
2022/02/24 01:45:07;;;;;;;16.20;10.80;;;;;;;2.74;83.40;99838.67;108767;1282;22626;-59
2022/02/24 01:47:38;;;;;;;18.10;11.40;;;;;;;2.71;83.42;99835.88;108417;1283;137596;-59
2022/02/24 01:50:07;;;;;;;16.90;10.60;;;;;;;2.73;83.40;99837.41;108744;1282;23682;-59
2022/02/24 01:52:35;;;;;;;20.80;12.40;;;;;;;2.71;83.60;99841.58;108856;1279;137270;-61
2022/02/24 01:55:04;;;;;;;20.30;12.20;;;;;;;2.69;83.51;99845.79;109181;1277;22246;-59
2022/02/24 01:57:33;;;;;;;26.10;13.30;;;;;;;2.68;83.47;99850.38;108856;1277;139869;-59
2022/02/24 02:00:01;;;;;;;18.60;10.70;;;;;;;2.68;83.53;99851.77;109008;1277;22587;-59
2022/02/24 02:02:39;;;;;;;19.60;11.90;;;;;;;2.68;83.61;99852.98;109000;1279;22522;-59
2022/02/24 02:05:08;;;;;;;18.40;10.20;;;;;;;2.68;83.77;99857.27;108982;1277;138552;-59
2022/02/24 02:07:36;;;;;;;15.90;10.10;;;;;;;2.69;83.77;99860.59;109127;1277;22482;-59
2022/02/24 02:10:04;;;;;;;19.30;11.10;;;;;;;2.69;83.87;99862.38;108921;1279;138834;-60
2022/02/24 02:12:45;;;;;;;20.60;11.90;;;;;;;2.69;84.01;99864.45;109135;1277;22560;-60
2022/02/24 02:15:13;;;;;;;16.40;10.50;;;;;;;2.70;83.97;99865.95;108979;1279;22556;-60
2022/02/24 02:17:42;;;;;;;19.90;10.50;;;;;;;2.71;84.15;99867.07;109075;1277;137862;-60
2022/02/24 02:20:11;;;;;;;17.80;10.50;;;;;;;2.74;84.18;99871.92;109172;1277;22450;-59
2022/02/24 02:22:39;;;;;;;21.00;11.70;;;;;;;2.75;84.19;99871.01;108867;1277;137958;-59
2022/02/24 02:25:11;;;;;;;18.50;11.90;;;;;;;2.77;84.33;99875.29;109212;1277;22470;-60
2022/02/24 02:27:39;;;;;;;23.10;11.80;;;;;;;2.78;84.20;99880.26;109061;1277;139008;-60
2022/02/24 02:30:07;;;;;;;22.20;14.20;;;;;;;2.79;84.22;99882.50;109141;1277;22519;-60
2022/02/24 02:32:37;;;;;;;29.00;20.50;;;;;;;2.80;84.26;99885.98;109127;1277;22530;-60
2022/02/24 02:35:05;;;;;;;33.80;23.00;;;;;;;2.81;84.16;99887.85;109078;1277;137889;-60
2022/02/24 02:37:33;;;;;;;37.10;24.90;;;;;;;2.83;84.31;99888.53;108989;1277;22465;-60
2022/02/24 02:40:02;;;;;;;27.30;17.90;;;;;;;2.84;84.22;99888.95;109049;1277;138182;-59
2022/02/24 02:42:30;;;;;;;26.30;15.10;;;;;;;2.86;84.24;99891.86;109131;1277;22446;-60
2022/02/24 02:44:58;;;;;;;22.70;14.10;;;;;;;2.87;84.19;99894.73;109033;1277;22470;-59
2022/02/24 02:47:26;;;;;;;25.20;14.80;;;;;;;2.89;84.24;99897.78;108930;1277;137782;-60
2022/02/24 02:49:54;;;;;;;27.20;15.10;;;;;;;2.90;84.30;99902.39;109051;1277;22487;-60
2022/02/24 02:52:22;;;;;;;23.90;15.00;;;;;;;2.92;84.30;99902.52;108944;1277;139880;-60
2022/02/24 02:54:51;;;;;;;25.70;14.70;;;;;;;2.94;84.31;99905.22;109138;1277;22396;-60
2022/02/24 02:57:19;;;;;;;24.10;13.30;;;;;;;2.93;84.30;99906.88;108843;1279;22457;-60
2022/02/24 02:59:47;;;;;;;21.30;13.20;;;;;;;2.94;84.23;99908.75;108984;1277;138315;-59
2022/02/24 03:02:15;;;;;;;18.30;10.50;;;;;;;2.95;84.30;99909.30;109146;1277;22472;-59
2022/02/24 03:04:43;;;;;;;16.80;11.10;;;;;;;2.96;84.23;99912.41;109026;1277;139457;-59
2022/02/24 03:07:12;;;;;;;14.50;10.20;;;;;;;2.97;84.37;99916.42;109076;1277;22593;-59
2022/02/24 03:09:40;;;;;;;18.00;10.30;;;;;;;2.98;84.31;99916.44;109003;1276;139783;-59
2022/02/24 03:12:08;;;;;;;16.80;11.00;;;;;;;2.99;84.26;99919.80;109161;1277;22469;-58
2022/02/24 03:14:38;;;;;;;17.20;11.10;;;;;;;2.99;84.24;99920.46;109140;1277;22478;-58
2022/02/24 03:17:06;;;;;;;24.50;12.70;;;;;;;3.01;84.38;99920.84;109014;1277;139031;-59
2022/02/24 03:19:34;;;;;;;15.30;10.20;;;;;;;3.01;84.26;99921.34;109159;1277;23342;-58
2022/02/24 03:22:06;;;;;;;19.60;12.60;;;;;;;3.00;84.25;99923.73;108997;1277;138741;-59
2022/02/24 03:24:34;;;;;;;15.40;10.20;;;;;;;3.00;84.17;99924.81;109135;1277;22462;-60
2022/02/24 03:27:02;;;;;;;17.20;10.10;;;;;;;2.98;83.96;99923.88;109006;1279;22609;-59
2022/02/24 03:29:31;;;;;;;17.10;10.90;;;;;;;2.95;83.92;99924.77;108944;1277;138466;-59
2022/02/24 03:31:59;;;;;;;15.20;9.70;;;;;;;2.94;84.02;99929.06;109133;1275;22548;-59
2022/02/24 03:34:28;;;;;;;16.30;10.10;;;;;;;2.89;83.98;99924.32;108890;1279;137869;-60
2022/02/24 03:36:56;;;;;;;17.70;10.80;;;;;;;2.94;84.32;99932.76;109159;1277;22491;-60
2022/02/24 03:39:24;;;;;;;15.10;10.60;;;;;;;2.96;84.38;99933.94;109135;1277;23147;-60
2022/02/24 03:41:51;;;;;;;19.60;12.30;;;;;;;2.97;84.27;99933.63;109000;1277;137706;-60
2022/02/24 03:44:19;;;;;;;16.40;10.80;;;;;;;2.96;84.21;99931.08;109155;1277;22529;-60
2022/02/24 03:46:48;;;;;;;18.70;10.60;;;;;;;2.96;84.33;99932.19;109025;1277;138098;-60
2022/02/24 03:49:16;;;;;;;13.90;9.80;;;;;;;2.97;84.36;99935.84;109156;1277;22450;-60
2022/02/24 03:51:46;;;;;;;13.70;9.40;;;;;;;3.01;84.40;99933.69;109061;1277;139218;-60
2022/02/24 03:54:14;;;;;;;22.70;14.70;;;;;;;3.04;84.52;99931.90;109089;1277;22452;-60
2022/02/24 03:56:41;;;;;;;28.70;17.70;;;;;;;3.06;84.53;99934.77;109106;1277;22477;-59
2022/02/24 03:59:10;;;;;;;32.50;19.80;;;;;;;3.07;84.41;99932.20;109051;1277;139796;-60
2022/02/24 04:01:38;;;;;;;34.60;23.40;;;;;;;3.06;84.39;99927.06;109134;1277;22438;-60
2022/02/24 04:04:06;;;;;;;31.00;24.00;;;;;;;3.05;84.49;99931.56;109027;1277;138981;-60
2022/02/24 04:06:35;;;;;;;29.30;20.10;;;;;;;3.04;84.56;99931.89;109165;1277;23706;-60
2022/02/24 04:09:04;;;;;;;36.90;25.90;;;;;;;3.02;84.43;99936.05;109016;1278;22452;-60
2022/02/24 04:11:32;;;;;;;34.40;23.60;;;;;;;3.01;84.41;99941.18;109030;1277;137254;-59
2022/02/24 04:14:01;;;;;;;33.60;22.10;;;;;;;3.01;84.48;99939.07;109129;1277;22415;-60
2022/02/24 04:16:29;;;;;;;33.00;22.00;;;;;;;3.00;84.32;99945.69;108880;1278;138390;-60
2022/02/24 04:18:57;;;;;;;31.90;20.20;;;;;;;2.97;84.34;99948.73;109116;1277;22603;-60
2022/02/24 04:21:25;;;;;;;31.80;21.00;;;;;;;2.93;84.33;99954.98;109135;1277;22758;-60
2022/02/24 04:23:53;;;;;;;35.10;21.80;;;;;;;2.91;84.63;99959.36;108997;1277;138243;-60
2022/02/24 04:26:21;;;;;;;23.60;15.90;;;;;;;2.90;84.46;99960.43;109104;1275;22563;-59
2022/02/24 04:28:49;;;;;;;22.10;13.90;;;;;;;2.91;84.55;99968.52;108900;1277;139220;-60
2022/02/24 04:31:17;;;;;;;28.80;15.50;;;;;;;2.92;84.73;99971.95;109065;1277;22338;-60
2022/02/24 04:33:45;;;;;;;24.70;12.90;;;;;;;2.94;84.71;99979.88;108863;1278;138464;-60
2022/02/24 04:36:13;;;;;;;17.90;12.00;;;;;;;2.95;84.97;99983.58;109144;1277;23337;-59
2022/02/24 04:38:41;;;;;;;24.60;12.70;;;;;;;2.96;84.81;99984.58;109131;1277;22475;-59
2022/02/24 04:41:09;;;;;;;23.00;13.10;;;;;;;2.99;84.88;99992.46;108907;1278;138448;-59
2022/02/24 04:43:37;;;;;;;17.60;12.00;;;;;;;3.01;84.99;99997.74;109009;1278;24033;-60
2022/02/24 04:46:05;;;;;;;22.40;12.50;;;;;;;3.03;84.83;100001.92;109024;1277;138905;-59
2022/02/24 04:48:33;;;;;;;21.80;12.80;;;;;;;3.05;84.99;100004.62;109154;1276;22476;-59
2022/02/24 04:51:01;;;;;;;22.60;12.30;;;;;;;3.05;84.97;100011.34;109082;1277;22503;-59
2022/02/24 04:53:29;;;;;;;25.00;13.60;;;;;;;3.06;84.91;100014.69;109117;1276;138029;-60
2022/02/24 04:55:57;;;;;;;19.30;11.80;;;;;;;3.06;84.84;100016.43;109119;1276;23178;-59
2022/02/24 04:58:25;;;;;;;18.40;11.80;;;;;;;3.07;84.69;100022.23;108924;1277;139037;-59
2022/02/24 05:00:53;;;;;;;23.70;13.10;;;;;;;3.07;84.73;100026.79;109173;1276;22419;-60
2022/02/24 05:03:21;;;;;;;21.60;13.60;;;;;;;3.04;84.72;100028.68;109176;1276;22492;-59
2022/02/24 05:05:51;;;;;;;19.50;12.50;;;;;;;3.02;84.63;100035.44;109046;1276;138506;-59
2022/02/24 05:08:20;;;;;;;19.20;13.10;;;;;;;3.01;84.45;100040.40;109193;1276;22458;-60
2022/02/24 05:10:48;;;;;;;20.30;12.80;;;;;;;3.00;84.51;100042.78;108978;1277;138499;-60
2022/02/24 05:13:16;;;;;;;20.80;12.70;;;;;;;2.99;84.63;100045.92;109071;1277;23244;-60
2022/02/24 05:15:44;;;;;;;22.10;12.60;;;;;;;2.98;84.55;100046.20;109020;1277;140187;-59
2022/02/24 05:18:13;;;;;;;19.00;11.20;;;;;;;2.98;84.59;100054.45;109232;1276;23239;-59
2022/02/24 05:20:46;;;;;;;20.20;11.50;;;;;;;2.99;84.59;100055.95;109149;1276;22539;-59
2022/02/24 05:23:14;;;;;;;23.90;13.00;;;;;;;3.01;84.64;100061.98;109008;1276;138096;-59
2022/02/24 05:25:41;;;;;;;21.70;11.80;;;;;;;3.02;84.68;100062.34;109135;1276;22999;-59
2022/02/24 05:28:10;;;;;;;22.30;11.10;;;;;;;3.03;84.56;100065.79;109017;1276;138401;-59
2022/02/24 05:30:38;;;;;;;16.30;11.60;;;;;;;3.06;84.60;100070.52;109176;1276;22524;-59
2022/02/24 05:33:09;;;;;;;15.50;11.10;;;;;;;3.08;84.40;100073.51;109148;1277;22445;-59
2022/02/24 05:35:37;;;;;;;19.80;11.50;;;;;;;3.10;84.59;100072.46;109047;1276;138356;-59
2022/02/24 05:38:08;;;;;;;22.40;11.80;;;;;;;3.12;84.70;100077.70;109122;1276;24484;-59
2022/02/24 05:40:36;;;;;;;27.90;14.60;;;;;;;3.16;84.41;100086.23;109047;1277;138913;-59
2022/02/24 05:43:04;;;;;;;30.10;14.50;;;;;;;3.17;84.40;100093.55;109080;1277;22505;-60
2022/02/24 05:45:32;;;;;;;31.10;16.80;;;;;;;3.18;84.34;100096.86;108999;1276;137631;-61
2022/02/24 05:48:00;;;;;;;30.90;15.80;;;;;;;3.20;84.24;100101.18;109138;1276;22393;-61
2022/02/24 05:50:28;;;;;;;19.90;13.00;;;;;;;3.21;84.20;100102.84;109090;1277;22570;-60
2022/02/24 05:53:02;;;;;;;22.70;13.90;;;;;;;3.22;84.06;100109.86;109043;1276;137814;-59
2022/02/24 05:55:33;;;;;;;20.80;12.80;;;;;;;3.23;84.02;100111.90;109190;1276;23848;-60
2022/02/24 05:58:01;;;;;;;34.00;19.20;;;;;;;3.23;84.00;100117.17;109018;1276;138612;-61
2022/02/24 06:00:29;;;;;;;23.30;15.60;;;;;;;3.25;83.94;100122.23;109120;1276;23293;-60
2022/02/24 06:02:58;;;;;;;30.90;22.50;;;;;;;3.24;83.88;100124.95;109114;1277;22629;-60
2022/02/24 06:05:26;;;;;;;23.20;15.70;;;;;;;3.22;83.77;100131.45;109008;1276;138232;-59
2022/02/24 06:07:54;;;;;;;26.20;19.30;;;;;;;3.22;83.60;100138.08;109145;1276;22439;-59
2022/02/24 06:10:22;;;;;;;28.20;19.70;;;;;;;3.21;83.71;100140.55;109038;1276;139299;-60
2022/02/24 06:12:55;;;;;;;24.70;14.70;;;;;;;3.21;83.75;100142.84;109173;1276;22443;-60
2022/02/24 06:15:23;;;;;;;24.20;16.30;;;;;;;3.23;83.70;100151.22;109195;1276;22528;-60
2022/02/24 06:17:52;;;;;;;23.90;15.90;;;;;;;3.25;83.71;100153.14;109080;1276;138067;-59
2022/02/24 06:20:20;;;;;;;21.00;14.80;;;;;;;3.26;83.67;100154.77;109106;1277;22280;-59
2022/02/24 06:22:49;;;;;;;20.60;14.20;;;;;;;3.26;83.60;100156.92;109116;1276;138184;-59
2022/02/24 06:25:17;;;;;;;19.00;13.80;;;;;;;3.25;83.63;100161.19;109234;1276;22464;-59
2022/02/24 06:27:45;;;;;;;18.80;13.60;;;;;;;3.24;83.63;100160.63;109019;1277;138856;-59
2022/02/24 06:30:13;;;;;;;19.80;13.70;;;;;;;3.24;83.73;100160.96;109098;1277;22356;-59
2022/02/24 06:32:41;;;;;;;19.80;13.60;;;;;;;3.26;83.80;100167.27;109201;1276;23170;-59
2022/02/24 06:35:10;;;;;;;20.60;12.50;;;;;;;3.28;83.77;100167.01;109000;1276;138535;-60
2022/02/24 06:37:42;;;;;;;21.40;13.00;;;;;;;3.29;83.69;100172.41;109181;1275;22482;-61
2022/02/24 06:40:11;;;;;;;20.60;13.50;;;;;;;3.29;83.80;100174.55;108979;1277;138498;-61
2022/02/24 06:42:40;;;;;;;19.30;13.10;;;;;;;3.28;83.68;100175.42;109137;1277;22425;-61
2022/02/24 06:45:08;;;;;;;22.70;13.90;;;;;;;3.27;83.73;100179.46;109105;1276;22565;-61
2022/02/24 06:47:37;;;;;;;22.80;14.60;;;;;;;3.26;83.73;100181.77;109022;1276;140640;-61
2022/02/24 06:50:06;;;;;;;23.00;13.40;;;;;;;3.24;83.68;100184.90;109208;1276;22452;-61
2022/02/24 06:52:36;;;;;;;19.80;13.60;;;;;;;3.19;83.87;100187.63;109092;1276;138346;-62
2022/02/24 06:55:05;;;;;;;23.20;16.10;;;;;;;3.14;83.73;100193.29;109042;1276;22486;-62
2022/02/24 06:57:38;;;;;;;28.60;18.90;;;;;;;3.11;83.91;100193.50;109059;1276;139921;-61
2022/02/24 07:00:06;;;;;;;24.80;15.30;;;;;;;3.10;84.02;100192.33;109218;1276;22555;-62
2022/02/24 07:02:42;;;;;;;23.80;15.50;;;;;;;3.10;84.18;100197.75;109174;1276;23221;-62
2022/02/24 07:05:14;;;;;;;26.30;16.70;;;;;;;3.13;84.27;100197.91;107614;1276;139640;-61
2022/02/24 07:07:42;;;;;;;23.60;15.00;;;;;;;3.15;84.22;100199.22;104703;1276;22623;-61
2022/02/24 07:10:14;;;;;;;41.20;22.80;;;;;;;3.15;84.16;100203.90;104626;1278;138744;-61
2022/02/24 07:12:45;;;;;;;39.00;25.50;;;;;;;3.13;84.09;100204.04;104715;1278;25611;-61
2022/02/24 07:15:13;;;;;;;31.80;20.90;;;;;;;3.13;84.12;100207.77;104797;1277;24471;-60
2022/02/24 07:17:45;;;;;;;22.90;15.10;;;;;;;3.11;84.22;100211.94;109050;1276;137972;-59
2022/02/24 07:20:22;;;;;;;26.10;17.10;;;;;;;3.13;84.34;100214.94;109177;1276;22455;-58
2022/02/24 07:22:50;;;;;;;21.30;15.10;;;;;;;3.12;84.17;100217.82;108999;1277;138351;-59
2022/02/24 07:25:18;;;;;;;22.20;13.10;;;;;;;3.14;84.26;100219.54;109187;1276;22534;-60
2022/02/24 07:27:46;;;;;;;18.30;12.80;;;;;;;3.16;84.22;100226.77;109056;1276;138606;-59
2022/02/24 07:30:14;;;;;;;17.10;11.60;;;;;;;3.17;84.22;100224.61;109181;1276;22497;-59
2022/02/24 07:32:42;;;;;;;17.30;11.90;;;;;;;3.19;84.30;100229.92;109204;1276;22451;-59
2022/02/24 07:35:12;;;;;;;17.90;11.60;;;;;;;3.22;84.26;100230.57;109046;1276;140777;-60
2022/02/24 07:37:40;;;;;;;17.50;12.00;;;;;;;3.24;84.13;100235.29;109201;1276;22546;-59
2022/02/24 07:40:10;;;;;;;30.20;16.50;;;;;;;3.28;84.28;100237.85;109087;1276;138430;-60
2022/02/24 07:42:38;;;;;;;19.60;13.60;;;;;;;3.30;84.04;100241.90;109163;1276;22468;-60
2022/02/24 07:45:07;;;;;;;19.50;13.60;;;;;;;3.32;84.11;100242.36;109158;1276;23154;-59
2022/02/24 07:47:36;;;;;;;19.30;14.50;;;;;;;3.33;83.85;100244.27;109060;1276;138530;-61
2022/02/24 07:50:05;;;;;;;21.20;13.50;;;;;;;3.32;83.82;100247.20;109166;1276;23611;-60
2022/02/24 07:52:33;;;;;;;25.20;17.10;;;;;;;3.33;83.90;100248.29;109046;1276;139872;-60
2022/02/24 07:55:01;;;;;;;29.80;18.80;;;;;;;3.35;83.93;100252.04;109119;1276;22939;-60
2022/02/24 07:57:29;;;;;;;20.10;15.10;;;;;;;3.34;83.91;100249.46;109171;1276;22229;-60
2022/02/24 07:59:57;;;;;;;18.60;14.10;;;;;;;3.33;83.73;100252.97;108950;1276;138279;-60
2022/02/24 08:02:25;;;;;;;24.60;15.70;;;;;;;3.32;83.89;100257.98;109205;1276;22346;-60
2022/02/24 08:04:54;;;;;;;20.20;13.70;;;;;;;3.31;83.80;100269.96;109084;1276;138258;-60
2022/02/24 08:07:41;;;;;;;17.60;12.50;;;;;;;3.27;83.70;100270.83;109184;1276;23548;-59
2022/02/24 08:10:09;;;;;;;17.40;12.10;;;;;;;3.25;83.85;100275.94;109139;1276;139795;-59
2022/02/24 08:12:50;;;;;;;13.70;10.20;;;;;;;3.24;84.04;100275.88;109215;1276;22535;-60
2022/02/24 08:15:21;;;;;;;14.90;9.30;;;;;;;3.26;84.18;100281.21;109167;1276;23073;-60
2022/02/24 08:17:51;;;;;;;14.10;9.20;;;;;;;3.28;84.16;100282.56;109062;1276;138839;-59
2022/02/24 08:20:22;;;;;;;11.70;7.80;;;;;;;3.31;84.03;100285.49;109204;1276;22378;-59
2022/02/24 08:22:51;;;;;;;14.20;8.70;;;;;;;3.32;84.12;100286.48;109078;1277;138056;-60
2022/02/24 08:25:19;;;;;;;15.70;9.30;;;;;;;3.34;84.10;100288.23;109184;1277;23502;-59
2022/02/24 08:27:47;;;;;;;15.10;9.80;;;;;;;3.29;83.70;100287.99;108990;1277;138272;-59
2022/02/24 08:30:21;;;;;;;24.90;14.80;;;;;;;3.24;83.92;100287.44;109190;1277;22553;-59
2022/02/24 08:32:50;;;;;;;21.90;13.50;;;;;;;3.24;84.14;100287.89;109064;1277;22602;-59
2022/02/24 08:35:18;;;;;;;17.60;12.00;;;;;;;3.22;84.11;100284.89;109060;1276;140007;-59
2022/02/24 08:37:50;;;;;;;13.30;9.90;;;;;;;3.22;84.21;100287.92;109179;1277;22592;-59
2022/02/24 08:40:19;;;;;;;12.30;9.40;;;;;;;3.23;84.03;100292.52;109029;1277;139233;-60
2022/02/24 08:42:48;;;;;;;14.40;9.80;;;;;;;3.23;84.29;100294.81;109162;1277;22444;-60
2022/02/24 08:45:17;;;;;;;14.60;9.50;;;;;;;3.28;84.37;100292.66;109106;1276;23210;-59
2022/02/24 08:47:45;;;;;;;12.80;9.30;;;;;;;3.30;84.26;100291.83;109060;1277;139029;-59
2022/02/24 08:50:13;;;;;;;12.00;8.60;;;;;;;3.33;84.06;100294.03;109188;1277;22665;-59
2022/02/24 08:53:01;;;;;;;13.80;8.30;;;;;;;3.33;84.00;100292.62;108969;1278;138663;-59
2022/02/24 08:55:31;;;;;;;11.00;8.60;;;;;;;3.37;83.96;100294.70;109192;1277;23510;-59
2022/02/24 08:58:01;;;;;;;12.50;9.10;;;;;;;3.37;83.66;100294.33;109084;1277;138177;-61
2022/02/24 09:00:33;;;;;;;12.70;9.10;;;;;;;3.36;83.70;100289.76;109235;1276;22433;-59
2022/02/24 09:03:02;;;;;;;15.20;11.00;;;;;;;3.37;83.64;100292.25;109185;1276;22682;-59
2022/02/24 09:05:34;;;;;;;17.30;10.20;;;;;;;3.39;83.78;100291.90;108928;1277;138712;-60
2022/02/24 09:08:02;;;;;;;13.00;9.40;;;;;;;3.42;83.67;100295.73;109207;1276;23473;-60
2022/02/24 09:10:30;;;;;;;13.50;9.10;;;;;;;3.42;83.55;100297.95;108930;1277;139047;-60
2022/02/24 09:12:59;;;;;;;13.20;10.00;;;;;;;3.43;83.45;100297.88;109197;1277;22664;-59
2022/02/24 09:15:31;;;;;;;12.10;9.70;;;;;;;3.45;83.55;100299.17;109146;1277;22458;-60
2022/02/24 09:18:05;;;;;;;15.00;10.70;;;;;;;3.48;83.27;100299.73;109092;1277;137904;-60
2022/02/24 09:20:33;;;;;;;13.70;10.20;;;;;;;3.53;83.26;100295.39;109000;1277;22469;-60
2022/02/24 09:23:01;;;;;;;16.20;10.60;;;;;;;3.60;83.38;100295.16;109075;1277;139024;-59
2022/02/24 09:25:29;;;;;;;13.70;10.20;;;;;;;3.67;82.98;100296.33;109228;1278;22530;-59
2022/02/24 09:27:58;;;;;;;15.60;10.50;;;;;;;3.71;82.87;100295.22;109090;1277;138547;-59
2022/02/24 09:30:26;;;;;;;11.70;8.30;;;;;;;3.75;82.68;100298.48;109228;1276;22508;-59
2022/02/24 09:32:56;;;;;;;16.30;7.60;;;;;;;3.77;82.40;100291.24;109132;1278;22403;-59
2022/02/24 09:35:24;;;;;;;10.20;8.00;;;;;;;3.80;81.71;100294.88;108963;1278;137770;-59
2022/02/24 09:37:52;;;;;;;9.80;7.70;;;;;;;3.81;81.70;100292.45;109195;1276;22466;-60
2022/02/24 09:40:20;;;;;;;12.00;8.70;;;;;;;3.86;81.62;100295.84;109000;1277;138432;-59
2022/02/24 09:43:08;;;;;;;15.90;12.20;;;;;;;3.91;81.29;100292.67;109175;1277;23722;-60
2022/02/24 09:45:38;;;;;;;14.00;10.00;;;;;;;3.93;81.03;100290.58;108985;1279;22462;-60
2022/02/24 09:48:08;;;;;;;16.50;10.50;;;;;;;3.95;80.74;100294.49;108992;1278;137810;-59
2022/02/24 09:50:39;;;;;;;13.10;9.70;;;;;;;3.94;80.54;100294.03;109221;1276;22251;-60
2022/02/24 09:53:07;;;;;;;14.40;10.60;;;;;;;3.95;80.30;100289.85;109066;1276;138193;-60
2022/02/24 09:55:35;;;;;;;15.90;10.10;;;;;;;3.94;80.24;100289.08;108427;1277;22575;-59
2022/02/24 09:58:03;;;;;;;13.80;9.40;;;;;;;3.93;79.85;100290.91;104834;1278;138766;-59
2022/02/24 10:00:31;;;;;;;11.40;8.20;;;;;;;3.90;79.76;100296.45;104846;1277;25447;-59
2022/02/24 10:02:59;;;;;;;16.50;10.20;;;;;;;3.92;79.74;100294.30;104773;1277;25093;-59
2022/02/24 10:05:28;;;;;;;16.20;9.00;;;;;;;3.91;79.21;100294.21;109047;1277;138620;-60
2022/02/24 10:08:10;;;;;;;15.80;10.50;;;;;;;3.88;79.09;100294.41;109026;1277;214760;-60
2022/02/24 10:11:31;;;;;;;21.10;14.00;;;;;;;3.90;79.10;100291.11;101516;1310;545172;-60
2022/02/24 10:14:12;;;;;;;22.70;13.50;;;;;;;3.89;79.09;100288.90;103786;1287;25478;-60
2022/02/24 10:17:02;;;;;;;20.40;12.30;;;;;;;3.91;79.30;100291.68;108096;1287;138448;-60
2022/02/24 10:19:43;;;;;;;21.60;14.80;;;;;;;3.95;79.31;100293.82;108173;1287;22591;-60
2022/02/24 10:22:29;;;;;;;32.70;23.00;;;;;;;3.92;79.15;100294.14;108040;1287;137804;-61
2022/02/24 10:25:04;;;;;;;25.30;14.20;;;;;;;3.91;79.20;100292.42;108146;1284;154732;-60
2022/02/24 10:27:35;;;;;;;17.30;12.40;;;;;;;3.93;79.22;100296.50;108354;1284;22532;-60
2022/02/24 10:30:13;;;;;;;18.50;12.80;;;;;;;3.93;78.88;100292.73;108215;1284;137976;-60
2022/02/24 10:32:42;;;;;;;15.80;10.70;;;;;;;3.90;78.89;100287.57;108334;1281;23714;-60
2022/02/24 10:35:30;;;;;;;12.50;9.60;;;;;;;3.87;78.95;100289.88;108277;1286;139225;-60
2022/02/24 10:38:02;;;;;;;8.40;6.40;;;;;;;3.83;79.14;100290.92;108320;1285;22385;-60
2022/02/24 10:40:36;;;;;;;9.60;6.90;;;;;;;3.82;78.63;100292.27;108265;1284;137084;-60
2022/02/24 10:43:18;;;;;;;11.90;7.70;;;;;;;3.78;78.39;100291.28;108239;1286;22464;-60
2022/02/24 10:46:17;;;;;;;10.10;7.40;;;;;;;3.76;78.56;100287.90;108269;1284;140029;-59
2022/02/24 10:48:50;;;;;;;12.10;7.70;;;;;;;3.73;78.54;100282.52;108401;1284;22444;-60
2022/02/24 10:51:25;;;;;;;10.80;7.20;;;;;;;3.73;78.49;100286.36;108395;1284;22427;-60
2022/02/24 10:53:59;;;;;;;10.40;7.80;;;;;;;3.73;78.78;100287.98;108290;1284;138690;-60
2022/02/24 10:56:27;;;;;;;10.30;7.70;;;;;;;3.72;78.79;100287.73;108098;1287;22445;-60
2022/02/24 10:58:55;;;;;;;11.40;8.20;;;;;;;3.72;79.03;100288.67;108225;1284;138547;-60
2022/02/24 11:01:24;;;;;;;9.20;7.30;;;;;;;3.71;79.03;100291.08;108347;1285;22513;-60
2022/02/24 11:04:00;;;;;;;11.80;9.00;;;;;;;3.68;78.94;100289.72;108288;1283;137936;-61
2022/02/24 11:06:33;;;;;;;10.70;7.80;;;;;;;3.68;79.02;100292.20;108303;1286;22560;-60
2022/02/24 11:09:02;;;;;;;10.20;7.60;;;;;;;3.66;79.46;100292.64;108288;1286;22661;-60
2022/02/24 11:11:35;;;;;;;12.60;9.30;;;;;;;3.65;79.39;100294.34;108149;1287;137385;-60
2022/02/24 11:14:11;;;;;;;10.60;7.10;;;;;;;3.66;79.60;100294.92;108351;1283;22511;-60
2022/02/24 11:16:39;;;;;;;10.00;6.50;;;;;;;3.67;79.18;100293.32;108149;1285;138918;-60
2022/02/24 11:19:07;;;;;;;11.60;7.20;;;;;;;3.68;79.04;100288.77;108239;1286;22528;-60
2022/02/24 11:21:47;;;;;;;8.70;6.30;;;;;;;3.69;78.74;100289.15;108201;1286;138039;-60
2022/02/24 11:24:15;;;;;;;8.80;6.70;;;;;;;3.69;78.44;100287.23;108295;1286;23661;-60